Ana Sayfa
METAR-TAF:

METAR-TAF

Havaalanları :

Roben-Hood Airport

Big Rapids, Michigan, Amerika Birleşik Devletleri

Enlem: 43-43-21N, Boylam: 085-30-15W, yükseklik: 302 m

Güncel hava durumu gözlemi

Rapor saat 03:38 UTC de 19 dakika önce yapıldı.
Rüzgar güneybatıdan 8 kt, güney ve batı/güneybatı arasında değişken
Sıcaklık 25°C
Nem 65%
Basınç 1015 hPa
Görüş mesafesi: 16.1 km
Açık gökyüzü

METAR: KRQB 160338Z AUTO 23008KT 180V240 10SM CLR 25/18 A2998 RMK AO2 T02540184

Saat: 23:57 (03:57 UTC)


TAF: eksik

4.000'den fazla havaalanı için hava durumu gözlemleri ve tahminleri (METAR ve TAF raporları).

Kullanılabilir istasyonlar harita üzerinde sarı ve kırmızı noktalarla gösterilir.

İstasyonun adını görmek için fareyi noktanın üzerinde gezdirin.

Sonrasında hava gözlem ve tahminlerini görmek için tıklayın.

Haritayı değiştirmek için: yaklaştırmak için siyah artı işaretli yeşil düğmeye ve uzaklaştırmak için de eksi işaretli düğmeye hızla tıklayın; bitişik haritalar için yeşil okları kullanın.


METAR-TAF: